createdAt,value
2023-04-09T00:01:47.515Z,6.00
2023-04-09T00:04:15.333Z,8.98
2023-04-09T00:06:43.478Z,10.60
2023-04-09T00:09:11.499Z,7.82
2023-04-09T00:11:39.690Z,7.37
2023-04-09T00:14:07.944Z,6.03
2023-04-09T00:16:36.092Z,9.02
2023-04-09T00:19:03.899Z,9.43
2023-04-09T00:21:32.772Z,9.85
2023-04-09T00:24:00.665Z,7.33
2023-04-09T00:26:28.715Z,8.55
2023-04-09T00:28:56.694Z,8.80
2023-04-09T00:31:24.761Z,9.02
2023-04-09T00:33:52.561Z,8.95
2023-04-09T00:36:20.720Z,9.67
2023-04-09T00:38:50.682Z,7.63
2023-04-09T00:41:19.162Z,8.25
2023-04-09T00:43:47.374Z,8.73
2023-04-09T00:46:16.723Z,9.00
2023-04-09T00:48:44.742Z,8.20
2023-04-09T00:51:12.811Z,6.68
2023-04-09T00:53:41.024Z,7.57
2023-04-09T00:56:09.159Z,7.72
2023-04-09T00:58:37.625Z,7.82
2023-04-09T01:01:05.783Z,6.73
2023-04-09T01:03:33.769Z,7.57
2023-04-09T01:06:11.735Z,11.57
2023-04-09T01:09:00.186Z,9.70
2023-04-09T01:11:44.490Z,8.75
2023-04-09T01:14:15.835Z,8.40
2023-04-09T01:16:51.208Z,10.43
2023-04-09T01:19:27.885Z,8.90
2023-04-09T01:21:58.446Z,9.43
2023-04-09T01:24:32.048Z,11.30
2023-04-09T01:27:07.092Z,8.90
2023-04-09T01:29:53.935Z,7.55
2023-04-09T01:32:23.969Z,7.50
2023-04-09T01:34:52.807Z,11.20
2023-04-09T01:37:21.468Z,9.73
2023-04-09T01:39:49.964Z,8.57
2023-04-09T01:42:19.073Z,8.70
2023-04-09T01:44:48.384Z,7.78
2023-04-09T01:47:17.126Z,9.32
2023-04-09T01:49:46.318Z,9.55
2023-04-09T01:52:15.110Z,12.87
2023-04-09T01:54:43.966Z,9.45
2023-04-09T01:57:11.783Z,9.20
2023-04-09T01:59:42.773Z,10.80
2023-04-09T02:02:21.188Z,8.15
2023-04-09T02:04:52.593Z,9.83
2023-04-09T02:07:44.767Z,7.05
2023-04-09T02:10:14.727Z,8.05
2023-04-09T02:12:50.329Z,9.18
2023-04-09T02:15:20.703Z,10.82
2023-04-09T02:17:48.872Z,7.77
2023-04-09T02:20:20.543Z,11.90
2023-04-09T02:22:48.901Z,9.43
2023-04-09T02:25:17.016Z,8.35
2023-04-09T02:27:45.056Z,7.97
2023-04-09T02:30:13.027Z,6.50
2023-04-09T02:32:41.683Z,11.30
2023-04-09T02:35:09.962Z,7.93
2023-04-09T02:37:38.037Z,8.48
2023-04-09T02:40:06.266Z,7.78
2023-04-09T02:42:34.427Z,11.00
2023-04-09T02:45:05.496Z,7.05
2023-04-09T02:47:34.639Z,8.23
2023-04-09T02:50:02.509Z,8.60
2023-04-09T02:52:33.621Z,7.93
2023-04-09T02:55:01.770Z,5.63
2023-04-09T02:57:30.536Z,9.00
2023-04-09T02:59:58.901Z,6.47
2023-04-09T03:02:27.238Z,6.63
2023-04-09T03:04:56.112Z,7.65
2023-04-09T03:07:24.074Z,10.27
2023-04-09T03:09:52.071Z,8.10
2023-04-09T03:12:20.218Z,6.25
2023-04-09T03:14:47.992Z,6.70
2023-04-09T03:17:16.055Z,9.00
2023-04-09T03:19:43.978Z,6.53
2023-04-09T03:22:12.117Z,9.45
2023-04-09T03:24:39.916Z,6.43
2023-04-09T03:27:08.043Z,9.38
2023-04-09T03:29:35.958Z,6.15
2023-04-09T03:32:04.974Z,6.97
2023-04-09T03:34:33.253Z,7.22
2023-04-09T03:37:01.419Z,7.95
2023-04-09T03:39:32.519Z,6.13
2023-04-09T03:42:00.805Z,6.47
2023-04-09T03:44:34.130Z,8.10
2023-04-09T03:47:09.658Z,7.43
2023-04-09T03:49:39.266Z,6.88
2023-04-09T03:52:16.503Z,7.15
2023-04-09T03:54:47.894Z,9.15
2023-04-09T03:57:20.357Z,6.17
2023-04-09T03:59:51.056Z,5.80
2023-04-09T04:02:22.271Z,5.22
2023-04-09T04:05:03.298Z,6.05
2023-04-09T04:07:37.575Z,7.07
2023-04-09T04:10:11.522Z,6.30
2023-04-09T04:12:43.890Z,5.85
2023-04-09T04:15:17.011Z,5.97
2023-04-09T04:17:50.444Z,5.35
2023-04-09T04:20:34.481Z,4.53
2023-04-09T04:23:08.211Z,5.13
2023-04-09T04:25:43.208Z,4.43
2023-04-09T04:28:15.852Z,5.88
2023-04-09T04:30:44.127Z,6.18
2023-04-09T04:33:12.365Z,5.10
2023-04-09T04:35:51.918Z,9.90
2023-04-09T04:38:48.914Z,6.07
2023-04-09T04:41:25.053Z,5.30
2023-04-09T04:44:04.190Z,3.83
2023-04-09T04:46:32.964Z,6.07
2023-04-09T04:49:00.823Z,6.53
2023-04-09T04:51:32.652Z,5.28
2023-04-09T04:54:09.442Z,5.43
2023-04-09T04:56:38.315Z,6.25
2023-04-09T04:59:16.349Z,4.30
2023-04-09T05:01:59.358Z,6.87
2023-04-09T05:04:31.013Z,5.22
2023-04-09T05:07:00.142Z,6.18
2023-04-09T05:09:28.064Z,6.85
2023-04-09T05:12:03.070Z,5.85
2023-04-09T05:14:31.259Z,6.83
2023-04-09T05:16:59.428Z,4.75
2023-04-09T05:19:37.175Z,6.85
2023-04-09T05:22:05.664Z,7.45
2023-04-09T05:24:33.766Z,7.07
2023-04-09T05:27:01.770Z,6.50
2023-04-09T05:29:31.528Z,7.20
2023-04-09T05:32:01.160Z,5.15
2023-04-09T05:34:33.842Z,6.10
2023-04-09T05:37:02.098Z,6.15
2023-04-09T05:39:30.773Z,7.07
2023-04-09T05:42:01.595Z,8.68
2023-04-09T05:44:52.596Z,6.35
2023-04-09T05:47:25.113Z,5.32
2023-04-09T05:50:02.317Z,5.15
2023-04-09T05:52:31.664Z,6.70
2023-04-09T05:54:59.974Z,6.32
2023-04-09T05:57:42.211Z,5.45
2023-04-09T06:00:11.013Z,5.60
2023-04-09T06:02:45.240Z,8.60
2023-04-09T06:05:13.686Z,5.57
2023-04-09T06:07:42.143Z,5.90
2023-04-09T06:10:10.208Z,5.60
2023-04-09T06:12:38.192Z,6.40
2023-04-09T06:15:06.752Z,6.45
2023-04-09T06:17:34.814Z,6.13
2023-04-09T06:20:03.001Z,6.50
2023-04-09T06:22:30.899Z,5.65
2023-04-09T06:25:07.841Z,6.90
2023-04-09T06:27:36.098Z,5.13
2023-04-09T06:30:03.982Z,10.73
2023-04-09T06:32:35.520Z,11.20
2023-04-09T06:35:10.898Z,8.00
2023-04-09T06:37:39.172Z,7.05
2023-04-09T06:40:09.136Z,7.25
2023-04-09T06:42:38.311Z,6.87
2023-04-09T06:45:16.316Z,13.30
2023-04-09T06:47:44.420Z,12.65
2023-04-09T06:50:12.229Z,6.78
2023-04-09T06:52:40.285Z,6.97
2023-04-09T06:55:08.388Z,8.47
2023-04-09T06:57:36.494Z,7.65
2023-04-09T07:00:04.976Z,7.10
2023-04-09T07:02:33.260Z,5.82
2023-04-09T07:05:01.318Z,7.05
2023-04-09T07:07:29.469Z,8.17
2023-04-09T07:09:57.638Z,6.15
2023-04-09T07:12:33.739Z,5.85
2023-04-09T07:15:03.161Z,5.65
2023-04-09T07:17:32.420Z,6.28
2023-04-09T07:20:00.881Z,6.90
2023-04-09T07:22:31.214Z,5.78
2023-04-09T07:24:59.253Z,5.80
2023-04-09T07:27:29.421Z,5.07
2023-04-09T07:29:59.126Z,9.90
2023-04-09T07:32:31.333Z,5.00
2023-04-09T07:35:07.507Z,7.03
2023-04-09T07:37:36.024Z,3.17
2023-04-09T07:40:07.306Z,4.05
2023-04-09T07:42:37.650Z,3.85
2023-04-09T07:45:07.078Z,4.37
2023-04-09T07:47:35.209Z,13.07
2023-04-09T07:50:03.319Z,6.07
2023-04-09T07:52:31.349Z,3.85
2023-04-09T07:54:59.366Z,3.10
2023-04-09T07:57:28.226Z,4.53
2023-04-09T07:59:56.538Z,3.88
2023-04-09T08:02:24.886Z,7.97
2023-04-09T08:04:53.688Z,5.55
2023-04-09T08:07:21.678Z,4.38
2023-04-09T08:09:52.143Z,4.73
2023-04-09T08:12:20.232Z,5.30
2023-04-09T08:14:48.098Z,5.15
2023-04-09T08:17:16.137Z,5.18
2023-04-09T08:19:44.268Z,9.60
2023-04-09T08:22:12.247Z,5.37
2023-04-09T08:24:40.597Z,6.32
2023-04-09T08:27:09.192Z,5.47
2023-04-09T08:29:37.019Z,3.83
2023-04-09T08:32:05.200Z,3.53
2023-04-09T08:34:33.117Z,2.87
2023-04-09T08:37:01.327Z,4.85
2023-04-09T08:39:29.141Z,4.28
2023-04-09T08:42:03.086Z,4.28
2023-04-09T08:44:31.398Z,3.97
2023-04-09T08:47:03.126Z,4.17
2023-04-09T08:49:31.289Z,4.53
2023-04-09T08:51:59.183Z,7.53
2023-04-09T08:54:27.357Z,7.10
2023-04-09T08:56:58.004Z,5.28
2023-04-09T08:59:26.609Z,5.73
2023-04-09T09:02:12.268Z,4.63
2023-04-09T09:04:48.423Z,7.47
2023-04-09T09:07:17.630Z,3.92
2023-04-09T09:09:56.021Z,4.32
2023-04-09T09:12:43.658Z,5.07
2023-04-09T09:15:30.625Z,4.93
2023-04-09T09:18:01.251Z,3.92
2023-04-09T09:20:29.484Z,3.75
2023-04-09T09:22:58.056Z,4.55
2023-04-09T09:25:26.861Z,4.13
2023-04-09T09:27:55.079Z,4.18
2023-04-09T09:30:28.291Z,5.15
2023-04-09T09:33:08.526Z,4.47
2023-04-09T09:35:51.285Z,4.13
2023-04-09T09:38:19.572Z,3.47
2023-04-09T09:40:48.131Z,4.60
2023-04-09T09:43:18.614Z,3.40
2023-04-09T09:45:48.900Z,2.70
2023-04-09T09:48:17.211Z,2.92
2023-04-09T09:50:47.522Z,8.27
2023-04-09T09:53:23.520Z,3.30
2023-04-09T09:55:54.067Z,3.67
2023-04-09T09:58:50.575Z,3.35
2023-04-09T10:01:20.734Z,5.80
2023-04-09T10:03:52.883Z,3.37
2023-04-09T10:06:21.421Z,8.88
2023-04-09T10:08:53.038Z,3.28
2023-04-09T10:11:21.664Z,9.82
2023-04-09T10:13:58.105Z,6.32
2023-04-09T10:16:30.211Z,5.10
2023-04-09T10:18:59.732Z,4.93
2023-04-09T10:21:31.176Z,6.10
2023-04-09T10:24:00.776Z,4.72
2023-04-09T10:26:31.121Z,5.38
2023-04-09T10:29:12.149Z,4.40
2023-04-09T10:31:53.667Z,5.35
2023-04-09T10:34:30.760Z,7.35
2023-04-09T10:37:03.184Z,6.35
2023-04-09T10:39:34.554Z,7.75
2023-04-09T10:42:30.850Z,5.60
2023-04-09T10:45:17.357Z,5.88
2023-04-09T10:47:46.719Z,5.93
2023-04-09T10:50:21.683Z,6.05
2023-04-09T10:53:00.028Z,10.13
2023-04-09T10:55:32.002Z,8.43
2023-04-09T10:58:00.348Z,9.48
2023-04-09T11:00:28.226Z,10.50
2023-04-09T11:03:28.112Z,11.25
2023-04-09T11:06:10.800Z,5.53
2023-04-09T11:08:39.451Z,7.73
2023-04-09T11:11:07.456Z,6.90
2023-04-09T11:13:35.903Z,5.10
2023-04-09T11:16:07.519Z,8.70
2023-04-09T11:18:37.668Z,10.25
2023-04-09T11:21:06.373Z,7.43
2023-04-09T11:23:34.807Z,8.02
2023-04-09T11:26:03.576Z,6.22
2023-04-09T11:28:31.672Z,8.32
2023-04-09T11:31:00.080Z,6.05
2023-04-09T11:33:34.839Z,7.80
2023-04-09T11:36:07.414Z,6.45
2023-04-09T11:38:39.141Z,6.43
2023-04-09T11:41:07.308Z,7.05
2023-04-09T11:43:37.454Z,8.32
2023-04-09T11:46:06.855Z,6.83
2023-04-09T11:48:36.382Z,8.18
2023-04-09T11:51:04.530Z,8.82
2023-04-09T11:53:32.529Z,6.32
2023-04-09T11:56:00.611Z,8.27
2023-04-09T11:58:28.566Z,7.07
2023-04-09T12:00:59.368Z,7.07
2023-04-09T12:03:33.846Z,11.85
2023-04-09T12:06:04.026Z,9.18
2023-04-09T12:08:35.398Z,8.20
2023-04-09T12:11:13.918Z,16.40
2023-04-09T12:13:45.389Z,10.35
2023-04-09T12:16:14.904Z,8.05
2023-04-09T12:18:43.523Z,6.72
2023-04-09T12:21:11.719Z,6.28
2023-04-09T12:23:39.790Z,8.30
2023-04-09T12:26:08.047Z,9.20
2023-04-09T12:28:36.066Z,7.03
2023-04-09T12:31:03.997Z,6.80
2023-04-09T12:33:32.738Z,6.88
2023-04-09T12:36:01.006Z,6.50
2023-04-09T12:38:29.086Z,5.90
2023-04-09T12:40:57.190Z,6.82
2023-04-09T12:43:25.253Z,6.30
2023-04-09T12:45:53.596Z,4.50
2023-04-09T12:48:21.824Z,5.47
2023-04-09T12:50:49.673Z,7.50
2023-04-09T12:53:17.946Z,5.13
2023-04-09T12:55:45.958Z,5.30
2023-04-09T12:58:14.022Z,5.10
2023-04-09T13:00:42.369Z,5.33
2023-04-09T13:03:10.574Z,3.92
2023-04-09T13:05:39.008Z,4.25
2023-04-09T13:08:07.377Z,4.50
2023-04-09T13:10:35.641Z,4.93
2023-04-09T13:13:03.945Z,3.97
2023-04-09T13:15:32.065Z,5.25
2023-04-09T13:18:00.699Z,5.28
2023-04-09T13:20:28.464Z,4.53
2023-04-09T13:22:56.929Z,5.90
2023-04-09T13:25:25.064Z,4.40
2023-04-09T13:27:53.161Z,6.07
2023-04-09T13:30:23.074Z,4.22
2023-04-09T13:32:51.385Z,4.88
2023-04-09T13:35:19.596Z,4.35
2023-04-09T13:37:47.716Z,4.53
2023-04-09T13:40:16.674Z,4.63
2023-04-09T13:42:45.135Z,4.50
2023-04-09T13:45:13.352Z,3.38
2023-04-09T13:47:41.626Z,4.80
2023-04-09T13:50:10.782Z,4.07
2023-04-09T13:52:39.257Z,4.22
2023-04-09T13:55:09.075Z,5.00
2023-04-09T13:57:37.189Z,6.82
2023-04-09T14:00:06.422Z,4.82
2023-04-09T14:02:34.820Z,6.10
2023-04-09T14:05:04.381Z,8.25
2023-04-09T14:07:32.658Z,3.85
2023-04-09T14:10:00.600Z,4.45
2023-04-09T14:12:28.915Z,3.25
2023-04-09T14:14:56.930Z,3.70
2023-04-09T14:17:25.529Z,4.32
2023-04-09T14:19:53.610Z,4.43
2023-04-09T14:22:21.546Z,5.35
2023-04-09T14:24:49.702Z,4.10
2023-04-09T14:27:17.649Z,4.07
2023-04-09T14:29:45.511Z,4.55
2023-04-09T14:32:13.565Z,4.32
2023-04-09T14:34:41.832Z,6.25
2023-04-09T14:37:09.754Z,3.28
2023-04-09T14:39:37.933Z,2.90
2023-04-09T14:42:05.794Z,3.95
2023-04-09T14:44:33.840Z,4.70
2023-04-09T14:47:02.248Z,3.63
2023-04-09T14:49:30.442Z,3.88
2023-04-09T14:51:59.397Z,5.60
2023-04-09T14:54:30.812Z,3.67
2023-04-09T14:57:00.471Z,4.90
2023-04-09T14:59:28.743Z,3.65
2023-04-09T15:01:57.122Z,4.40
2023-04-09T15:04:25.162Z,3.80
2023-04-09T15:06:54.329Z,3.65
2023-04-09T15:09:22.390Z,5.60
2023-04-09T15:11:51.387Z,4.72
2023-04-09T15:14:21.742Z,4.50
2023-04-09T15:16:50.553Z,3.40
2023-04-09T15:19:19.535Z,4.30
2023-04-09T15:21:47.729Z,3.35
2023-04-09T15:24:15.439Z,4.20
2023-04-09T15:26:43.624Z,4.75
2023-04-09T15:29:11.846Z,7.20
2023-04-09T15:31:41.438Z,4.95
2023-04-09T15:34:10.449Z,3.85
2023-04-09T15:36:39.503Z,4.25
2023-04-09T15:39:08.128Z,4.05
2023-04-09T15:41:36.151Z,5.03
2023-04-09T15:44:04.630Z,4.45
2023-04-09T15:46:32.503Z,5.97
2023-04-09T15:49:00.820Z,8.90
2023-04-09T15:51:28.639Z,3.72
2023-04-09T15:53:56.949Z,2.83
2023-04-09T15:56:24.987Z,4.55
2023-04-09T15:58:53.288Z,4.18
2023-04-09T16:01:21.409Z,4.30
2023-04-09T16:03:52.712Z,3.78
2023-04-09T16:06:21.478Z,3.00
2023-04-09T16:08:49.643Z,4.45
2023-04-09T16:11:18.219Z,4.95
2023-04-09T16:13:46.555Z,5.03
2023-04-09T16:16:14.930Z,4.40
2023-04-09T16:18:42.920Z,4.93
2023-04-09T16:21:10.983Z,4.68
2023-04-09T16:23:39.151Z,7.53
2023-04-09T16:26:07.985Z,4.65
2023-04-09T16:28:35.829Z,4.28
2023-04-09T16:31:07.045Z,4.20
2023-04-09T16:33:35.248Z,6.40
2023-04-09T16:36:03.202Z,5.45
2023-04-09T16:38:31.621Z,2.92
2023-04-09T16:41:00.099Z,5.28
2023-04-09T16:43:28.192Z,6.77
2023-04-09T16:45:56.139Z,6.03
2023-04-09T16:48:24.607Z,5.80
2023-04-09T16:50:55.340Z,6.70
2023-04-09T16:53:25.870Z,3.97
2023-04-09T16:55:57.343Z,7.83
2023-04-09T16:58:29.459Z,3.08
2023-04-09T17:00:57.911Z,3.72
2023-04-09T17:03:26.413Z,3.75
2023-04-09T17:05:55.105Z,6.13
2023-04-09T17:08:24.614Z,3.87
2023-04-09T17:10:55.213Z,2.17
2023-04-09T17:13:23.214Z,2.15
2023-04-09T17:15:52.611Z,3.05
2023-04-09T17:18:21.257Z,2.65
2023-04-09T17:20:49.727Z,2.40
2023-04-09T17:23:17.875Z,1.90
2023-04-09T17:25:49.143Z,2.95
2023-04-09T17:28:18.902Z,2.50
2023-04-09T17:30:47.757Z,4.03
2023-04-09T17:33:16.007Z,2.77
2023-04-09T17:35:44.370Z,3.17
2023-04-09T17:38:18.126Z,3.25
2023-04-09T17:40:46.922Z,13.80
2023-04-09T17:43:15.009Z,7.15
2023-04-09T17:45:43.121Z,10.20
2023-04-09T17:48:11.194Z,12.48
2023-04-09T17:50:39.472Z,5.75
2023-04-09T17:53:08.032Z,5.25
2023-04-09T17:55:36.185Z,4.05
2023-04-09T17:58:07.412Z,3.63
2023-04-09T18:00:35.451Z,4.13
2023-04-09T18:03:03.413Z,3.10
2023-04-09T18:05:32.156Z,5.03
2023-04-09T18:08:02.706Z,3.33
2023-04-09T18:10:31.302Z,3.57
2023-04-09T18:12:59.259Z,6.50
2023-04-09T18:15:28.487Z,11.95
2023-04-09T18:17:56.389Z,11.43
2023-04-09T18:20:24.431Z,16.33
2023-04-09T18:22:52.649Z,15.07
2023-04-09T18:25:22.601Z,12.88
2023-04-09T18:27:50.536Z,13.07
2023-04-09T18:30:18.807Z,8.90
2023-04-09T18:32:48.542Z,8.98
2023-04-09T18:35:17.852Z,8.00
2023-04-09T18:37:46.244Z,6.25
2023-04-09T18:40:18.558Z,7.60
2023-04-09T18:42:54.181Z,6.15
2023-04-09T18:45:22.682Z,5.63
2023-04-09T18:47:50.492Z,9.60
2023-04-09T18:50:19.183Z,9.18
2023-04-09T18:52:47.112Z,8.98
2023-04-09T18:55:16.627Z,8.00
2023-04-09T18:57:47.706Z,9.00
2023-04-09T19:00:16.722Z,10.33
2023-04-09T19:02:44.886Z,8.05
2023-04-09T19:05:13.506Z,7.90
2023-04-09T19:07:41.662Z,7.30
2023-04-09T19:10:10.817Z,6.35
2023-04-09T19:12:39.137Z,5.93
2023-04-09T19:15:08.084Z,5.63
2023-04-09T19:17:36.162Z,4.72
2023-04-09T19:20:05.051Z,5.28
2023-04-09T19:22:33.182Z,3.65
2023-04-09T19:25:04.316Z,5.13
2023-04-09T19:27:32.528Z,4.00
2023-04-09T19:30:01.815Z,4.68
2023-04-09T19:32:30.254Z,3.55
2023-04-09T19:34:58.189Z,3.67
2023-04-09T19:37:28.382Z,3.90
2023-04-09T19:39:58.198Z,5.28
2023-04-09T19:42:29.331Z,5.13
2023-04-09T19:44:57.642Z,7.70
2023-04-09T19:47:26.020Z,5.07
2023-04-09T19:49:57.467Z,5.90
2023-04-09T19:52:26.312Z,5.05
2023-04-09T19:54:55.865Z,7.07
2023-04-09T19:57:24.470Z,5.72
2023-04-09T19:59:52.658Z,6.07
2023-04-09T20:02:21.169Z,4.27
2023-04-09T20:04:52.971Z,4.50
2023-04-09T20:07:21.297Z,5.50
2023-04-09T20:09:50.021Z,8.20
2023-04-09T20:12:18.388Z,5.90
2023-04-09T20:14:50.313Z,5.57
2023-04-09T20:17:20.301Z,6.20
2023-04-09T20:19:48.651Z,18.75
2023-04-09T20:22:17.390Z,19.40
2023-04-09T20:24:46.438Z,16.52
2023-04-09T20:27:14.573Z,9.27
2023-04-09T20:29:43.110Z,7.85
2023-04-09T20:32:11.291Z,8.98
2023-04-09T20:34:39.477Z,7.25
2023-04-09T20:37:07.715Z,12.32
2023-04-09T20:39:36.473Z,11.97
2023-04-09T20:42:04.561Z,12.43
2023-04-09T20:44:33.454Z,13.55
2023-04-09T20:47:01.744Z,12.02
2023-04-09T20:49:30.294Z,9.85
2023-04-09T20:51:58.473Z,5.97
2023-04-09T20:54:27.005Z,9.20
2023-04-09T20:56:55.537Z,7.43
2023-04-09T20:59:23.965Z,10.60
2023-04-09T21:01:53.831Z,10.23
2023-04-09T21:04:24.722Z,12.83
2023-04-09T21:06:52.858Z,8.00
2023-04-09T21:09:20.860Z,7.07
2023-04-09T21:11:48.702Z,9.05
2023-04-09T21:14:16.649Z,7.40
2023-04-09T21:16:44.556Z,9.50
2023-04-09T21:19:14.094Z,6.93
2023-04-09T21:21:41.793Z,8.30
2023-04-09T21:24:09.527Z,6.95
2023-04-09T21:26:50.157Z,8.73
2023-04-09T21:29:22.173Z,9.57
2023-04-09T21:31:50.402Z,10.07
2023-04-09T21:34:18.217Z,9.88
2023-04-09T21:36:47.573Z,8.50
2023-04-09T21:39:15.488Z,8.48
2023-04-09T21:41:43.414Z,7.50
2023-04-09T21:44:11.163Z,8.10
2023-04-09T21:46:41.065Z,7.25
2023-04-09T21:49:09.023Z,5.72
2023-04-09T21:51:36.937Z,7.50
2023-04-09T21:54:06.404Z,6.37
2023-04-09T21:56:35.025Z,8.20
2023-04-09T21:59:03.808Z,7.65
2023-04-09T22:01:32.199Z,7.43
2023-04-09T22:04:00.895Z,6.13
2023-04-09T22:06:29.873Z,6.70
2023-04-09T22:08:58.394Z,7.25
2023-04-09T22:11:28.484Z,6.13
2023-04-09T22:13:57.596Z,6.60
2023-04-09T22:16:33.329Z,4.57
2023-04-09T22:19:02.817Z,4.47
2023-04-09T22:21:31.925Z,5.13
2023-04-09T22:24:21.951Z,8.10
2023-04-09T22:26:54.060Z,4.72
2023-04-09T22:29:22.278Z,4.85
2023-04-09T22:31:49.984Z,4.80
2023-04-09T22:34:21.547Z,6.60
2023-04-09T22:36:50.287Z,5.38
2023-04-09T22:39:18.295Z,5.68
2023-04-09T22:41:46.132Z,3.75
2023-04-09T22:44:14.105Z,8.43
2023-04-09T22:46:42.489Z,3.55
2023-04-09T22:49:10.639Z,4.60
2023-04-09T22:51:41.348Z,5.85
2023-04-09T22:54:10.691Z,5.53
2023-04-09T22:56:38.769Z,4.10
2023-04-09T22:59:07.142Z,4.78
2023-04-09T23:01:35.114Z,5.32
2023-04-09T23:04:03.452Z,4.85
2023-04-09T23:06:31.841Z,5.07
2023-04-09T23:09:00.334Z,5.70
2023-04-09T23:11:28.211Z,6.00
2023-04-09T23:13:56.287Z,4.90
2023-04-09T23:16:24.326Z,6.22
2023-04-09T23:18:52.690Z,6.55
2023-04-09T23:21:21.102Z,7.47
2023-04-09T23:23:49.329Z,7.90
2023-04-09T23:26:17.154Z,5.53
2023-04-09T23:28:45.153Z,6.13
2023-04-09T23:31:12.956Z,3.97
2023-04-09T23:33:41.137Z,6.67
2023-04-09T23:36:09.705Z,4.20
2023-04-09T23:38:37.578Z,4.95
2023-04-09T23:41:05.640Z,5.95
2023-04-09T23:43:33.512Z,5.32
2023-04-09T23:46:01.343Z,5.37
2023-04-09T23:48:29.357Z,8.60
2023-04-09T23:50:57.109Z,4.80
2023-04-09T23:53:25.359Z,4.97
2023-04-09T23:55:53.447Z,7.53
2023-04-09T23:58:22.128Z,6.50
